Terminal Aerodrome Forecast
Issued by NWS

Home | Current Version | Previous Version | Text Only | Print | Product List | Glossary On
Versions: 1 2 3 4 5 6 7 8 9 10 11 12 13 14 15 16
000
FTUS43 KMQT 270500
TAFIWD
TAF
KIWD 270522Z 2706/2806 01005KT 2SM -SN OVC015
     FM270800 01005KT 2SM -SN OVC007
     FM271700 34007KT 6SM -SN OVC008
     FM272000 30008KT P6SM -SN OVC025
     FM280100 29007KT P6SM BKN050
      AMD LTD TO CLD VIS AND WIND=

USA.gov is the U.S. government's official web portal to all federal, state and local government web resources and services.